Time;durP1;ratioP1;P1;durP2;ratioP2;P2;SDS_P1;SDS_P2;PMS_P1;PMS_P2;Temp;Humidity;BMP_temperature;BMP_pressure;BME280_temperature;BME280_humidity;BME280_pressure;Samples;Min_cycle;Max_cycle;Signal;HPM_P1;HPM_P2
2022/05/31 07:19:59;;;;;;;1.93;1.83;;;11.80;99.90;;;;;;5090957;28;20551;-66
2022/05/31 07:22:25;;;;;;;2.40;2.20;;;11.80;99.90;;;;;;5091024;28;20503;-67
2022/05/31 07:24:51;;;;;;;2.90;1.87;;;12.00;99.90;;;;;;5090713;28;20173;-67
2022/05/31 07:27:17;;;;;;;2.50;2.27;;;12.10;99.90;;;;;;5088553;28;20169;-64
2022/05/31 07:29:43;;;;;;;2.43;2.33;;;12.30;99.90;;;;;;5090848;28;20554;-67
2022/05/31 07:32:08;;;;;;;2.00;1.90;;;12.40;99.90;;;;;;5090840;28;20571;-64
2022/05/31 07:34:34;;;;;;;2.83;2.60;;;12.60;99.90;;;;;;5090640;28;20461;-68
2022/05/31 07:37:00;;;;;;;2.83;2.63;;;12.70;99.90;;;;;;5088582;28;20174;-70
2022/05/31 07:39:26;;;;;;;2.20;2.00;;;12.70;99.90;;;;;;5090397;28;20437;-68
2022/05/31 07:41:54;;;;;;;2.63;2.30;;;12.80;99.90;;;;;;5089612;28;20390;-64
2022/05/31 07:44:21;;;;;;;2.60;1.73;;;12.80;99.90;;;;;;5090388;28;20461;-66
2022/05/31 07:46:46;;;;;;;1.60;1.50;;;12.80;99.90;;;;;;5089230;28;20378;-67
2022/05/31 07:49:13;;;;;;;2.43;1.60;;;12.80;99.90;;;;;;5090426;28;20459;-64
2022/05/31 07:51:39;;;;;;;2.10;1.70;;;12.90;99.90;;;;;;5090389;28;20383;-68
2022/05/31 07:54:05;;;;;;;2.13;1.63;;;12.90;99.90;;;;;;5090303;28;20383;-67
2022/05/31 07:56:31;;;;;;;1.70;1.60;;;13.00;99.90;;;;;;5089281;28;20799;-64
2022/05/31 07:58:57;;;;;;;2.00;1.40;;;13.00;99.90;;;;;;5089115;28;20217;-63
2022/05/31 08:01:25;;;;;;;4.30;1.67;;;13.10;99.90;;;;;;5089935;28;20378;-63
2022/05/31 08:03:50;;;;;;;1.70;1.60;;;13.20;99.90;;;;;;5089968;28;20618;-64
2022/05/31 08:06:22;;;;;;;1.53;1.43;;;13.30;99.90;;;;;;5089832;28;20375;-64
2022/05/31 08:08:48;;;;;;;2.20;1.67;;;13.40;99.90;;;;;;5089239;28;20315;-67
2022/05/31 08:11:19;;;;;;;1.63;1.53;;;13.50;99.90;;;;;;5090184;28;20375;-64
2022/05/31 08:13:46;;;;;;;1.67;1.57;;;13.60;99.90;;;;;;5088584;28;20402;-63
2022/05/31 08:16:13;;;;;;;2.23;1.40;;;13.70;99.90;;;;;;5088610;28;20391;-64
2022/05/31 08:18:40;;;;;;;1.50;1.40;;;13.90;99.90;;;;;;5088105;28;20520;-64
2022/05/31 08:21:09;;;;;;;1.50;1.40;;;14.10;99.90;;;;;;5089400;28;20374;-67
2022/05/31 08:23:35;;;;;;;1.40;1.30;;;14.20;99.90;;;;;;5089958;28;20465;-63
2022/05/31 08:26:01;;;;;;;2.13;1.80;;;14.30;99.90;;;;;;5089801;28;20416;-64
2022/05/31 08:28:28;;;;;;;1.20;1.00;;;14.40;99.90;;;;;;5088840;28;20470;-64
2022/05/31 08:30:56;;;;;;;1.30;1.20;;;14.20;99.90;;;;;;5077362;28;20419;-67
2022/05/31 08:33:24;;;;;;;3.73;1.20;;;14.40;99.90;;;;;;5076175;28;20466;-64
2022/05/31 08:35:51;;;;;;;1.63;1.10;;;14.50;99.90;;;;;;5076143;28;20469;-64
2022/05/31 08:38:17;;;;;;;2.23;1.10;;;14.60;99.90;;;;;;5073469;28;20494;-66
2022/05/31 08:41:13;;;;;;;2.13;1.57;;;14.50;99.90;;;;;;5074905;28;20432;-64
2022/05/31 08:43:52;;;;;;;1.37;1.27;;;14.70;99.90;;;;;;5076119;28;20166;-67
2022/05/31 08:46:26;;;;;;;2.00;1.27;;;14.80;99.90;;;;;;5074513;28;20471;-64
2022/05/31 08:49:01;;;;;;;1.87;1.77;;;15.00;99.90;;;;;;5074072;28;20434;-64
2022/05/31 08:51:58;;;;;;;1.37;1.00;;;15.30;99.90;;;;;;5075727;28;20405;-64
2022/05/31 08:57:45;;;;;;;1.40;1.30;;;15.90;99.90;;;;;;5074627;28;20407;-68
2022/05/31 09:00:26;;;;;;;1.73;1.20;;;16.10;99.90;;;;;;5074039;28;20809;-68
2022/05/31 09:03:07;;;;;;;2.10;1.90;;;16.20;99.90;;;;;;5075483;28;20409;-64
2022/05/31 09:05:58;;;;;;;2.50;1.13;;;16.10;99.90;;;;;;5075409;28;20397;-63
2022/05/31 09:08:40;;;;;;;1.37;1.27;;;15.90;99.90;;;;;;5074438;28;20431;-68
2022/05/31 09:11:26;;;;;;;2.70;1.20;;;16.10;99.90;;;;;;5075239;28;20375;-68
2022/05/31 09:14:16;;;;;;;2.43;1.40;;;16.40;99.90;;;;;;5072586;28;20467;-66
2022/05/31 09:17:12;;;;;;;1.17;1.07;;;16.50;99.90;;;;;;5074584;28;20896;-67
2022/05/31 09:20:13;;;;;;;1.40;1.20;;;16.50;99.90;;;;;;5075076;28;20850;-65
2022/05/31 09:22:43;;;;;;;1.10;1.00;;;16.10;99.00;;;;;;5063524;28;20421;-65
2022/05/31 09:25:09;;;;;;;1.30;1.20;;;15.80;96.70;;;;;;5075236;28;20411;-67
2022/05/31 09:27:39;;;;;;;1.40;1.30;;;15.60;94.10;;;;;;5072748;28;20507;-68
2022/05/31 09:30:31;;;;;;;1.10;0.97;;;15.60;94.10;;;;;;5075100;28;20172;-64
2022/05/31 09:33:19;;;;;;;1.20;1.10;;;15.60;94.10;;;;;;5074988;28;20411;-64
2022/05/31 09:35:47;;;;;;;2.03;1.83;;;16.10;99.90;;;;;;5074953;28;20447;-68
2022/05/31 09:38:46;;;;;;;1.30;1.20;;;16.60;99.90;;;;;;5073661;28;20484;-64
2022/05/31 09:41:41;;;;;;;1.10;0.90;;;17.10;94.70;;;;;;5074107;28;20486;-69
2022/05/31 09:44:19;;;;;;;1.10;1.00;;;17.20;88.50;;;;;;5072608;28;20470;-64
2022/05/31 09:46:52;;;;;;;1.97;1.40;;;16.80;79.50;;;;;;5072510;28;20777;-64
2022/05/31 09:49:29;;;;;;;1.27;1.00;;;16.30;73.40;;;;;;5074358;28;20511;-65
2022/05/31 09:51:55;;;;;;;1.80;1.70;;;16.10;72.30;;;;;;5074427;28;20412;-68
2022/05/31 09:57:22;;;;;;;1.83;1.10;;;16.00;65.60;;;;;;5073621;28;20181;-69
2022/05/31 09:59:58;;;;;;;1.47;1.30;;;16.10;67.50;;;;;;5072929;28;20476;-64
2022/05/31 10:02:24;;;;;;;2.13;1.20;;;16.10;64.60;;;;;;5074400;28;20433;-64
2022/05/31 10:05:04;;;;;;;1.33;1.10;;;16.00;61.00;;;;;;5074365;28;20405;-69
2022/05/31 10:07:35;;;;;;;1.27;1.17;;;16.20;62.00;;;;;;5072955;28;20528;-64
2022/05/31 10:10:07;;;;;;;1.07;0.97;;;16.60;66.60;;;;;;5074374;28;20492;-63
2022/05/31 10:12:34;;;;;;;1.20;1.00;;;16.90;64.10;;;;;;5074058;28;20444;-64
2022/05/31 10:15:03;;;;;;;2.30;2.10;;;17.20;63.50;;;;;;5071834;28;20459;-69
2022/05/31 10:17:43;;;;;;;1.10;0.90;;;17.60;59.00;;;;;;5071825;28;20413;-69
2022/05/31 10:20:18;;;;;;;1.83;0.93;;;18.10;65.40;;;;;;5074366;28;20412;-69
2022/05/31 10:22:57;;;;;;;1.20;1.10;;;18.40;60.70;;;;;;5073763;28;20476;-69
2022/05/31 10:25:34;;;;;;;1.13;1.00;;;18.40;69.10;;;;;;5074083;28;20812;-65
2022/05/31 10:28:03;;;;;;;1.00;0.90;;;18.30;63.10;;;;;;5072895;28;20509;-69
2022/05/31 10:30:30;;;;;;;1.30;1.20;;;17.90;54.10;;;;;;5072707;28;20435;-65
2022/05/31 10:33:16;;;;;;;1.40;1.30;;;17.60;54.30;;;;;;5054038;28;20402;-70
2022/05/31 10:35:43;;;;;;;2.43;1.00;;;17.50;47.30;;;;;;5053728;28;20400;-64
2022/05/31 10:38:17;;;;;;;1.80;0.90;;;17.90;59.60;;;;;;5054609;28;20453;-69
2022/05/31 10:40:52;;;;;;;1.10;1.00;;;18.30;53.70;;;;;;5059526;28;20445;-68
2022/05/31 10:43:25;;;;;;;1.00;0.80;;;18.70;42.10;;;;;;5070710;28;20434;-69
2022/05/31 10:45:53;;;;;;;1.00;0.83;;;19.00;39.50;;;;;;5072419;28;20435;-68
2022/05/31 10:48:19;;;;;;;1.20;0.83;;;18.90;30.70;;;;;;5070359;28;20474;-70
2022/05/31 10:50:50;;;;;;;1.53;0.93;;;18.70;25.50;;;;;;5068750;28;20429;-64
2022/05/31 10:53:57;;;;;;;2.17;1.00;;;18.50;30.80;;;;;;5072947;28;20166;-64
2022/05/31 10:56:41;;;;;;;1.83;0.90;;;18.40;29.00;;;;;;5045879;28;20421;-69
2022/05/31 10:59:16;;;;;;;3.73;1.30;;;18.40;22.60;;;;;;5069765;28;20540;-66
2022/05/31 11:01:58;;;;;;;1.40;1.27;;;17.80;17.90;;;;;;5060280;28;20970;-67
2022/05/31 11:04:36;;;;;;;1.00;0.90;;;17.40;17.50;;;;;;5072513;28;20415;-70
2022/05/31 11:07:21;;;;;;;0.90;0.80;;;17.40;17.20;;;;;;5052467;28;20397;-74
2022/05/31 11:12:49;;;;;;;1.17;1.07;;;17.40;17.90;;;;;;5073337;28;20403;-64
2022/05/31 11:15:28;;;;;;;1.00;0.90;;;17.60;17.80;;;;;;5070924;28;20835;-64
2022/05/31 11:18:15;;;;;;;1.83;1.10;;;17.60;14.50;;;;;;5067344;28;20530;-74
2022/05/31 11:21:05;;;;;;;1.10;1.00;;;18.10;29.50;;;;;;5060175;28;20416;-69
2022/05/31 11:24:09;;;;;;;1.40;0.83;;;18.90;22.80;;;;;;5072039;28;20508;-74
2022/05/31 11:27:00;;;;;;;1.20;1.00;;;19.80;25.00;;;;;;5049560;28;20487;-67
2022/05/31 11:29:45;;;;;;;1.10;0.87;;;20.50;25.40;;;;;;5066118;28;20459;-75
2022/05/31 11:32:38;;;;;;;1.03;0.87;;;20.90;20.70;;;;;;5069173;28;20462;-81
2022/05/31 11:35:22;;;;;;;1.00;0.83;;;20.10;1.80;;;;;;5077745;28;20861;-67
2022/05/31 11:38:06;;;;;;;1.00;0.90;;;19.60;1.10;;;;;;5051936;28;20743;-75
2022/05/31 11:41:09;;;;;;;0.90;0.80;;;19.90;1.00;;;;;;5068242;28;20947;-66
2022/05/31 11:44:23;;;;;;;1.53;0.70;;;20.70;1.00;;;;;;5073040;28;20443;-71
2022/05/31 11:47:18;;;;;;;1.20;0.93;;;21.70;1.00;;;;;;5070193;28;20486;-75
2022/05/31 11:50:28;;;;;;;1.00;0.80;;;22.20;1.00;;;;;;5070296;28;20450;-66
2022/05/31 11:53:21;;;;;;;1.10;0.70;;;22.10;1.00;;;;;;5073212;28;20404;-66
2022/05/31 11:55:50;;;;;;;1.93;0.80;;;20.90;1.00;;;;;;5068769;28;20433;-73
2022/05/31 11:58:23;;;;;;;1.13;0.90;;;20.50;1.00;;;;;;5057830;28;20468;-70
2022/05/31 12:01:00;;;;;;;3.20;1.03;;;20.50;1.00;;;;;;5070492;28;20439;-71
2022/05/31 12:03:55;;;;;;;4.50;0.70;;;20.40;1.00;;;;;;5066692;28;20838;-68
2022/05/31 12:06:39;;;;;;;1.37;0.70;;;20.60;1.00;;;;;;5072101;28;20425;-70
2022/05/31 12:09:13;;;;;;;2.43;0.87;;;21.00;1.00;;;;;;5065178;28;20458;-69
2022/05/31 12:12:00;;;;;;;1.10;0.90;;;21.20;1.00;;;;;;5072995;28;20432;-65
2022/05/31 12:14:27;;;;;;;1.43;0.60;;;21.60;1.00;;;;;;5067107;28;20436;-69
2022/05/31 12:16:54;;;;;;;1.20;0.80;;;21.60;1.00;;;;;;5072614;28;20531;-65
2022/05/31 12:19:41;;;;;;;1.27;0.70;;;21.80;1.00;;;;;;5073993;28;20840;-65
2022/05/31 12:22:13;;;;;;;0.90;0.70;;;21.60;1.00;;;;;;5075074;28;20518;-64
2022/05/31 12:25:07;;;;;;;0.90;0.70;;;20.80;1.00;;;;;;5068067;28;20486;-71
2022/05/31 12:27:56;;;;;;;1.00;0.80;;;20.50;1.00;;;;;;5070237;28;20428;-63
2022/05/31 12:30:36;;;;;;;1.30;1.00;;;19.90;1.00;;;;;;5074717;28;20452;-72
2022/05/31 12:33:44;;;;;;;1.77;1.67;;;19.20;1.00;;;;;;5061138;28;20428;-66
2022/05/31 12:36:12;;;;;;;1.00;0.80;;;18.60;1.00;;;;;;5058535;28;20425;-71
2022/05/31 12:39:04;;;;;;;2.13;0.90;;;18.50;1.00;;;;;;5056625;28;20457;-73
2022/05/31 12:41:41;;;;;;;3.60;1.07;;;18.40;1.00;;;;;;5061279;28;20429;-64
2022/05/31 12:44:26;;;;;;;1.17;0.83;;;18.50;1.00;;;;;;5068209;28;20500;-64
2022/05/31 12:46:53;;;;;;;1.00;0.90;;;18.70;1.00;;;;;;5063953;28;20424;-63
2022/05/31 12:49:24;;;;;;;1.20;1.10;;;19.00;1.00;;;;;;5068336;28;20443;-69
2022/05/31 12:52:09;;;;;;;1.17;0.97;;;18.80;1.00;;;;;;5064985;28;20439;-64
2022/05/31 12:54:50;;;;;;;1.20;1.10;;;18.70;1.00;;;;;;5069779;28;20566;-68
2022/05/31 12:57:30;;;;;;;2.07;1.00;;;19.00;1.00;;;;;;5054965;28;20413;-69
2022/05/31 12:59:56;;;;;;;0.97;0.80;;;19.40;1.00;;;;;;5067999;28;20472;-64
2022/05/31 13:02:35;;;;;;;3.10;0.90;;;19.80;1.00;;;;;;5082390;28;20416;-68
2022/05/31 13:05:06;;;;;;;1.03;0.70;;;20.10;1.00;;;;;;5055297;28;20429;-63
2022/05/31 13:07:44;;;;;;;1.20;1.00;;;20.30;1.00;;;;;;5071380;28;20439;-69
2022/05/31 13:10:34;;;;;;;1.10;0.80;;;20.70;1.00;;;;;;5074215;28;20424;-64
2022/05/31 13:21:30;;;;;;;1.10;0.70;;;21.30;1.00;;;;;;5063461;28;20959;-72
2022/05/31 13:23:58;;;;;;;1.00;0.70;;;20.70;1.00;;;;;;5083253;28;20416;-64
2022/05/31 13:26:29;;;;;;;0.90;0.70;;;21.00;1.00;;;;;;5088594;28;20405;-71
2022/05/31 13:29:07;;;;;;;0.90;0.60;;;21.40;1.00;;;;;;5073016;28;20988;-65
2022/05/31 13:31:37;;;;;;;1.30;0.97;;;20.90;1.00;;;;;;5071303;28;20431;-65
2022/05/31 13:34:05;;;;;;;1.10;0.70;;;20.20;1.00;;;;;;5066187;28;20435;-65
2022/05/31 13:36:40;;;;;;;0.80;0.70;;;19.90;1.00;;;;;;5064482;28;20451;-66
2022/05/31 13:39:10;;;;;;;1.20;0.90;;;19.70;1.00;;;;;;5072502;28;20463;-65
2022/05/31 13:41:50;;;;;;;1.20;0.93;;;19.50;1.00;;;;;;5069051;28;20786;-65
2022/05/31 13:44:22;;;;;;;1.57;1.47;;;19.40;1.00;;;;;;5060771;28;20950;-65
2022/05/31 13:46:49;;;;;;;1.20;0.97;;;19.30;1.00;;;;;;5053325;28;20420;-65
2022/05/31 13:49:45;;;;;;;1.30;1.20;;;19.10;1.00;;;;;;5070469;28;20467;-65
2022/05/31 13:52:24;;;;;;;2.30;2.20;;;19.30;1.00;;;;;;5072639;28;20439;-64
2022/05/31 13:54:51;;;;;;;1.43;0.97;;;19.80;1.00;;;;;;5090446;28;20412;-72
2022/05/31 13:57:21;;;;;;;1.50;1.00;;;20.10;1.00;;;;;;5070753;28;20420;-72
2022/05/31 13:59:57;;;;;;;1.10;0.90;;;19.80;1.00;;;;;;5074391;28;20451;-72
2022/05/31 14:02:26;;;;;;;0.90;0.80;;;19.80;1.00;;;;;;5069026;28;20424;-65
2022/05/31 14:04:59;;;;;;;1.00;0.90;;;19.70;1.00;;;;;;5073998;28;20400;-72
2022/05/31 14:07:34;;;;;;;2.70;0.80;;;19.40;1.00;;;;;;5070073;28;21015;-66
2022/05/31 14:10:01;;;;;;;1.13;1.03;;;19.10;1.00;;;;;;5070115;28;20475;-65
2022/05/31 14:12:31;;;;;;;4.07;3.77;;;18.90;1.00;;;;;;5073212;28;20920;-64
2022/05/31 14:15:00;;;;;;;1.00;0.87;;;18.90;1.00;;;;;;5074745;28;20422;-73
2022/05/31 14:17:41;;;;;;;3.77;1.00;;;18.80;1.00;;;;;;5070758;28;20489;-72
2022/05/31 14:20:27;;;;;;;1.63;1.20;;;18.60;1.00;;;;;;5060859;28;20469;-65
2022/05/31 14:23:00;;;;;;;14.77;9.00;;;18.50;1.00;;;;;;5054008;28;20886;-72
2022/05/31 14:25:26;;;;;;;2.70;2.50;;;18.40;1.00;;;;;;5054558;28;20449;-66
2022/05/31 14:27:51;;;;;;;2.40;2.20;;;18.30;1.00;;;;;;5052487;28;20436;-72
2022/05/31 14:30:34;;;;;;;1.97;1.00;;;18.30;1.00;;;;;;5054057;28;20245;-65
2022/05/31 14:33:04;;;;;;;1.10;1.00;;;18.20;1.00;;;;;;5054070;28;20451;-72
2022/05/31 14:35:46;;;;;;;32.67;18.10;;;18.20;1.00;;;;;;5067709;28;20428;-72
2022/05/31 14:38:37;;;;;;;6.17;5.27;;;18.10;1.00;;;;;;5054228;28;20813;-72
2022/05/31 14:41:34;;;;;;;11.37;8.30;;;18.20;1.00;;;;;;5052606;28;20413;-66
2022/05/31 14:44:01;;;;;;;9.20;2.30;;;18.20;1.00;;;;;;5069110;28;20428;-64
2022/05/31 14:46:37;;;;;;;2.07;1.67;;;18.00;1.00;;;;;;5073318;28;20415;-72
2022/05/31 14:49:27;;;;;;;1.30;1.20;;;17.80;1.00;;;;;;5061291;28;20417;-73
2022/05/31 14:51:53;;;;;;;18.53;10.73;;;17.90;1.00;;;;;;5052275;28;20433;-72
2022/05/31 14:54:41;;;;;;;1.77;1.23;;;18.10;1.00;;;;;;5063894;28;20430;-65
2022/05/31 14:57:19;;;;;;;5.93;1.40;;;18.20;1.00;;;;;;5066918;28;20525;-73
2022/05/31 14:59:46;;;;;;;1.47;1.37;;;18.40;1.00;;;;;;5070043;28;20460;-65
2022/05/31 15:02:21;;;;;;;1.93;1.67;;;18.70;1.00;;;;;;5053612;28;20406;-72
2022/05/31 15:04:52;;;;;;;1.50;1.07;;;18.50;1.00;;;;;;5062125;28;20589;-64
2022/05/31 15:07:26;;;;;;;1.90;1.20;;;18.40;1.00;;;;;;5051841;28;20964;-72
2022/05/31 15:10:14;;;;;;;1.40;1.10;;;18.00;1.00;;;;;;5053061;28;20458;-72
2022/05/31 15:21:28;;;;;;;1.07;0.90;;;18.00;1.00;;;;;;5056309;28;20428;-71
2022/05/31 15:23:54;;;;;;;0.90;0.80;;;18.00;1.00;;;;;;5069526;28;20466;-65
2022/05/31 15:26:21;;;;;;;1.30;1.20;;;17.80;1.00;;;;;;5070602;28;20428;-70
2022/05/31 15:28:48;;;;;;;1.10;1.00;;;17.80;1.00;;;;;;5072591;28;20409;-72
2022/05/31 15:31:34;;;;;;;1.30;1.20;;;17.70;1.00;;;;;;5062775;28;20952;-72
2022/05/31 15:34:00;;;;;;;1.40;0.90;;;17.70;1.00;;;;;;5057528;28;20432;-64
2022/05/31 15:36:29;;;;;;;1.20;1.10;;;17.50;1.00;;;;;;5070021;28;20463;-72
2022/05/31 15:38:58;;;;;;;1.10;1.00;;;17.50;1.00;;;;;;5061815;28;20460;-70
2022/05/31 15:41:24;;;;;;;1.10;1.00;;;17.40;1.00;;;;;;5076504;28;20431;-71
2022/05/31 15:43:56;;;;;;;1.10;1.00;;;17.40;1.00;;;;;;5066932;28;20428;-65
2022/05/31 15:46:34;;;;;;;1.30;1.20;;;17.40;1.00;;;;;;5074188;28;20428;-67
2022/05/31 15:49:01;;;;;;;1.83;1.73;;;17.60;1.00;;;;;;5074999;28;20447;-72
2022/05/31 15:51:30;;;;;;;1.33;1.23;;;17.70;1.00;;;;;;5060704;28;20432;-73
2022/05/31 15:54:01;;;;;;;2.80;1.10;;;17.80;1.00;;;;;;5069751;28;20527;-66
2022/05/31 15:56:30;;;;;;;1.20;1.00;;;17.80;1.00;;;;;;5071133;28;20521;-65
2022/05/31 15:58:57;;;;;;;1.57;1.30;;;17.80;1.00;;;;;;5074386;28;20467;-64
2022/05/31 16:01:23;;;;;;;1.00;0.87;;;17.60;1.00;;;;;;5076744;28;20501;-65
2022/05/31 16:03:48;;;;;;;1.43;1.10;;;17.60;1.00;;;;;;5069297;28;20424;-74
2022/05/31 16:06:17;;;;;;;1.10;1.00;;;17.50;1.00;;;;;;5064969;28;20253;-72
2022/05/31 16:08:43;;;;;;;1.50;1.03;;;17.30;1.00;;;;;;5056506;28;20208;-69
2022/05/31 16:11:12;;;;;;;3.60;1.07;;;17.30;1.00;;;;;;5074878;28;20985;-73
2022/05/31 16:13:38;;;;;;;2.03;1.10;;;17.30;1.00;;;;;;5069348;28;20175;-73
2022/05/31 16:16:03;;;;;;;1.20;1.10;;;17.30;1.00;;;;;;5075915;28;20511;-73
2022/05/31 16:18:29;;;;;;;1.23;0.90;;;17.40;1.00;;;;;;5069623;28;20211;-65
2022/05/31 16:20:55;;;;;;;1.17;0.97;;;17.40;1.00;;;;;;5074579;28;20416;-64
2022/05/31 16:23:23;;;;;;;1.37;1.20;;;17.40;1.00;;;;;;5072974;28;20174;-64
2022/05/31 16:25:49;;;;;;;2.93;1.53;;;17.40;1.00;;;;;;5075048;28;20417;-65
2022/05/31 16:28:16;;;;;;;1.20;1.10;;;17.40;1.00;;;;;;5058323;28;20448;-74
2022/05/31 16:30:53;;;;;;;1.23;1.13;;;17.40;1.00;;;;;;5069573;28;20507;-64
2022/05/31 16:33:22;;;;;;;1.50;1.13;;;17.40;1.00;;;;;;5060180;28;20489;-68
2022/05/31 16:35:51;;;;;;;1.30;1.20;;;17.40;1.00;;;;;;5071102;28;20432;-72
2022/05/31 16:41:11;;;;;;;1.20;1.10;;;17.40;1.00;;;;;;5071026;28;20447;-67
2022/05/31 16:43:48;;;;;;;1.53;1.37;;;17.50;1.00;;;;;;5062512;28;20420;-71
2022/05/31 16:46:16;;;;;;;1.80;1.57;;;17.50;1.00;;;;;;5073693;28;20477;-66
2022/05/31 16:48:42;;;;;;;1.30;1.03;;;17.50;1.00;;;;;;5073535;28;21005;-64
2022/05/31 16:51:31;;;;;;;1.33;0.90;;;17.60;1.00;;;;;;5067458;28;20433;-64
2022/05/31 16:54:06;;;;;;;1.20;1.00;;;17.70;1.00;;;;;;5063601;28;20431;-68
2022/05/31 16:56:37;;;;;;;2.10;1.63;;;17.50;1.00;;;;;;5074502;28;20934;-74
2022/05/31 16:59:03;;;;;;;5.93;1.30;;;17.40;1.00;;;;;;5067930;28;20812;-74
2022/05/31 17:01:29;;;;;;;1.60;1.50;;;17.40;1.00;;;;;;5071762;28;20439;-75
2022/05/31 17:03:58;;;;;;;1.40;1.20;;;17.50;1.00;;;;;;5068692;28;20478;-66
2022/05/31 17:14:40;;;;;;;1.00;0.90;;;17.80;1.00;;;;;;5057067;28;20565;-73
2022/05/31 17:17:05;;;;;;;1.13;1.03;;;17.80;1.00;;;;;;5064042;28;20535;-66
2022/05/31 17:19:31;;;;;;;3.10;1.20;;;17.70;1.00;;;;;;5072594;28;20686;-75
2022/05/31 17:21:56;;;;;;;2.57;1.30;;;17.40;1.00;;;;;;5073844;28;20699;-66
2022/05/31 17:24:22;;;;;;;1.10;1.00;;;17.40;1.00;;;;;;5070836;28;20170;-65
2022/05/31 17:26:48;;;;;;;1.30;1.20;;;17.40;1.00;;;;;;5071513;28;20782;-65
2022/05/31 17:29:16;;;;;;;1.10;1.00;;;17.30;1.00;;;;;;5073839;28;20209;-65
2022/05/31 17:31:41;;;;;;;1.47;1.10;;;17.20;1.00;;;;;;5068974;28;20421;-71
2022/05/31 17:34:07;;;;;;;1.40;1.17;;;17.10;1.00;;;;;;5064159;28;20777;-64
2022/05/31 17:36:34;;;;;;;1.33;1.20;;;17.20;1.00;;;;;;5072833;28;20670;-69
2022/05/31 17:39:07;;;;;;;2.30;1.00;;;17.00;1.00;;;;;;5072033;28;20638;-69
2022/05/31 17:41:56;;;;;;;1.17;1.07;;;16.90;1.00;;;;;;5066671;28;20425;-70
2022/05/31 17:44:22;;;;;;;4.20;1.10;;;16.80;1.00;;;;;;5065668;28;20443;-70
2022/05/31 17:46:48;;;;;;;1.77;1.40;;;16.80;8.20;;;;;;5064745;28;20578;-70
2022/05/31 17:49:14;;;;;;;1.40;1.30;;;16.60;17.00;;;;;;5059356;28;20872;-64
2022/05/31 17:51:46;;;;;;;2.80;1.33;;;16.60;20.30;;;;;;5074846;28;20178;-72
2022/05/31 17:54:22;;;;;;;1.10;1.00;;;16.40;25.10;;;;;;5068959;28;20514;-71
2022/05/31 17:56:52;;;;;;;1.20;1.10;;;16.30;27.80;;;;;;5073727;28;21144;-71
2022/05/31 17:59:19;;;;;;;4.10;1.00;;;16.30;34.40;;;;;;5071927;28;20525;-64
2022/05/31 18:01:46;;;;;;;1.47;1.13;;;16.00;36.80;;;;;;5073231;28;20429;-64
2022/05/31 18:04:12;;;;;;;1.10;1.00;;;15.60;37.50;;;;;;5065827;28;20420;-69
2022/05/31 18:06:38;;;;;;;3.43;1.57;;;15.50;48.20;;;;;;5070192;28;20759;-65
2022/05/31 18:09:14;;;;;;;1.53;1.20;;;15.40;62.80;;;;;;5069475;28;20479;-65
2022/05/31 18:11:40;;;;;;;1.30;1.20;;;15.40;65.00;;;;;;5073191;28;20419;-70
2022/05/31 18:14:06;;;;;;;1.90;1.80;;;15.40;65.90;;;;;;5062691;28;20424;-70
2022/05/31 18:16:32;;;;;;;2.50;1.20;;;15.40;68.10;;;;;;5062835;28;20421;-73
2022/05/31 18:18:57;;;;;;;2.37;1.63;;;15.40;74.50;;;;;;5054362;28;20468;-73
2022/05/31 18:21:26;;;;;;;1.50;1.40;;;15.40;80.70;;;;;;5056994;28;20170;-66
2022/05/31 18:23:54;;;;;;;1.93;1.73;;;15.30;79.70;;;;;;5070386;28;20181;-66
2022/05/31 18:26:19;;;;;;;1.60;1.50;;;15.30;80.60;;;;;;5072197;28;20778;-71
2022/05/31 18:31:30;;;;;;;1.70;1.60;;;15.10;78.00;;;;;;5058036;28;20205;-66
2022/05/31 18:33:56;;;;;;;1.93;1.50;;;14.90;78.60;;;;;;5070547;28;20908;-74
2022/05/31 18:42:08;;;;;;;2.00;1.70;;;14.20;93.60;;;;;;5066811;28;20952;-74
2022/05/31 18:44:34;;;;;;;1.77;1.67;;;14.10;93.50;;;;;;5071184;28;20418;-66
2022/05/31 18:47:00;;;;;;;2.00;1.40;;;14.10;93.50;;;;;;5070517;28;20439;-74
2022/05/31 18:49:26;;;;;;;3.20;1.80;;;14.00;93.50;;;;;;5067697;28;20448;-74
2022/05/31 18:51:52;;;;;;;2.03;1.83;;;14.10;93.60;;;;;;5058823;28;20434;-73
2022/05/31 18:54:17;;;;;;;3.33;1.50;;;14.10;95.50;;;;;;5070007;28;20563;-65
2022/05/31 18:56:45;;;;;;;2.00;1.90;;;14.00;99.10;;;;;;5068285;28;20182;-65
2022/05/31 18:59:11;;;;;;;1.90;1.80;;;14.00;99.80;;;;;;5069879;28;20209;-66
2022/05/31 19:01:54;;;;;;;1.87;1.60;;;14.00;99.90;;;;;;5066050;28;20512;-72
2022/05/31 19:04:19;;;;;;;1.50;1.40;;;14.00;99.90;;;;;;5067274;28;20463;-72
2022/05/31 19:06:45;;;;;;;1.63;1.53;;;14.00;99.90;;;;;;5069303;28;20456;-72
2022/05/31 19:09:11;;;;;;;1.67;1.57;;;13.90;99.90;;;;;;5073342;28;20263;-71
2022/05/31 19:11:36;;;;;;;1.63;1.53;;;13.80;99.90;;;;;;5070636;28;20269;-72
2022/05/31 19:14:02;;;;;;;1.70;1.60;;;13.80;99.90;;;;;;5068665;28;20273;-74
2022/05/31 19:16:28;;;;;;;1.60;1.50;;;13.70;99.90;;;;;;5065794;28;20285;-73
2022/05/31 19:18:56;;;;;;;2.13;2.03;;;13.70;99.90;;;;;;5069195;28;20210;-74
2022/05/31 19:21:26;;;;;;;4.37;1.90;;;13.70;99.90;;;;;;5069376;28;20174;-66
2022/05/31 19:23:52;;;;;;;1.67;1.57;;;13.70;99.90;;;;;;5066586;28;20545;-66
2022/05/31 19:26:18;;;;;;;1.70;1.60;;;13.70;99.90;;;;;;5067371;28;20931;-67
2022/05/31 19:28:44;;;;;;;3.27;2.43;;;13.50;99.90;;;;;;5066925;28;20479;-75
2022/05/31 19:31:13;;;;;;;2.13;1.67;;;13.50;99.90;;;;;;5065462;28;20178;-66
2022/05/31 19:33:53;;;;;;;2.33;1.90;;;13.50;99.90;;;;;;5070548;28;20485;-67
2022/05/31 19:36:20;;;;;;;1.80;1.70;;;13.50;99.90;;;;;;5063058;28;20415;-66
2022/05/31 19:38:50;;;;;;;2.20;2.10;;;13.40;99.90;;;;;;5059677;28;20478;-75
2022/05/31 19:41:17;;;;;;;2.20;2.10;;;13.40;99.90;;;;;;5071959;28;20889;-75
2022/05/31 19:43:42;;;;;;;2.40;2.00;;;13.30;99.90;;;;;;5064065;28;20430;-74
2022/05/31 19:46:08;;;;;;;2.67;2.43;;;13.30;99.90;;;;;;5072072;28;20475;-67
2022/05/31 19:48:34;;;;;;;2.53;2.33;;;13.20;99.90;;;;;;5061620;28;20205;-66
2022/05/31 19:51:02;;;;;;;2.10;2.00;;;13.20;99.90;;;;;;5063225;28;20437;-74
2022/05/31 19:53:31;;;;;;;2.60;2.27;;;13.10;99.90;;;;;;5057850;28;20403;-66
2022/05/31 19:55:57;;;;;;;2.80;2.47;;;13.10;99.90;;;;;;5065825;28;20444;-75
2022/05/31 19:58:24;;;;;;;5.23;1.90;;;13.00;99.90;;;;;;5052910;28;20424;-66
2022/05/31 20:00:50;;;;;;;2.67;2.50;;;13.00;99.90;;;;;;5057273;28;20511;-66
2022/05/31 20:03:17;;;;;;;2.67;2.47;;;13.00;99.90;;;;;;5071292;28;21014;-66
2022/05/31 20:05:44;;;;;;;3.10;2.30;;;13.00;99.90;;;;;;5069623;28;20503;-75
2022/05/31 20:08:12;;;;;;;2.30;2.00;;;13.00;99.90;;;;;;5059262;28;20932;-74
2022/05/31 20:10:39;;;;;;;3.47;2.70;;;13.00;99.90;;;;;;5070169;28;20423;-75
2022/05/31 20:13:06;;;;;;;2.60;2.40;;;13.00;99.90;;;;;;5064710;28;20452;-67
2022/05/31 20:15:43;;;;;;;2.40;2.20;;;12.90;99.90;;;;;;5066146;28;20392;-75
2022/05/31 20:18:36;;;;;;;2.50;2.33;;;13.00;99.90;;;;;;5051945;28;20463;-67
2022/05/31 20:21:08;;;;;;;2.80;2.33;;;13.00;99.90;;;;;;5052227;28;20441;-67
2022/05/31 20:23:35;;;;;;;2.97;2.77;;;13.00;99.90;;;;;;5055937;28;20387;-76
2022/05/31 20:26:02;;;;;;;2.60;2.50;;;12.90;99.90;;;;;;5073462;28;20404;-67
2022/05/31 20:28:29;;;;;;;2.53;2.33;;;12.90;99.90;;;;;;5069672;28;20941;-67
2022/05/31 20:30:54;;;;;;;4.57;3.00;;;12.90;99.90;;;;;;5056024;28;20500;-75
2022/05/31 20:33:20;;;;;;;3.00;2.80;;;12.80;99.90;;;;;;5067770;28;20560;-75
2022/05/31 20:35:48;;;;;;;2.73;2.50;;;12.80;99.90;;;;;;5076302;28;20315;-75
2022/05/31 20:38:26;;;;;;;2.73;2.53;;;12.70;99.90;;;;;;5073925;28;20435;-67
2022/05/31 20:40:53;;;;;;;2.47;2.27;;;12.70;99.90;;;;;;5075329;28;20721;-66
2022/05/31 20:43:21;;;;;;;2.67;2.47;;;12.60;99.90;;;;;;5073533;28;20395;-66
2022/05/31 20:45:47;;;;;;;4.27;3.50;;;12.60;99.90;;;;;;5076046;28;20466;-75
2022/05/31 20:48:12;;;;;;;2.60;2.40;;;12.70;99.90;;;;;;5074733;28;20493;-75
2022/05/31 20:50:38;;;;;;;2.10;2.00;;;12.70;99.90;;;;;;5075159;28;20395;-76
2022/05/31 20:53:05;;;;;;;2.60;2.40;;;12.80;99.90;;;;;;5074539;28;20174;-71
2022/05/31 20:55:31;;;;;;;2.37;2.17;;;12.80;99.90;;;;;;5072795;28;20515;-67
2022/05/31 20:57:57;;;;;;;2.37;2.20;;;12.80;99.90;;;;;;5072112;28;20473;-75
2022/05/31 21:00:27;;;;;;;2.70;2.33;;;12.80;99.90;;;;;;5075551;28;20452;-67
2022/05/31 21:02:54;;;;;;;2.10;2.00;;;12.80;99.90;;;;;;5075551;28;20612;-75
2022/05/31 21:05:20;;;;;;;3.70;2.37;;;12.70;99.90;;;;;;5073296;28;20758;-75
2022/05/31 21:07:48;;;;;;;3.90;3.40;;;12.60;99.90;;;;;;5074323;28;20478;-67
2022/05/31 21:10:15;;;;;;;14.20;6.90;;;12.60;99.90;;;;;;5074646;28;20623;-75
2022/05/31 21:12:41;;;;;;;22.33;9.50;;;12.50;99.90;;;;;;5075129;28;20399;-67
2022/05/31 21:15:07;;;;;;;20.63;8.33;;;12.40;99.90;;;;;;5072570;28;20471;-75
2022/05/31 21:17:33;;;;;;;13.30;7.50;;;12.40;99.90;;;;;;5072703;28;20189;-73
2022/05/31 21:19:58;;;;;;;12.60;7.10;;;12.40;99.90;;;;;;5074034;28;20202;-67
2022/05/31 21:22:36;;;;;;;16.23;7.90;;;12.40;99.90;;;;;;5075131;28;20170;-74
2022/05/31 21:25:07;;;;;;;13.10;5.73;;;12.40;99.90;;;;;;5069629;28;20174;-75